Terminal Aerodrome Forecast
Issued by NWS

Home | Current Version | Previous Version | Text Only | Print | Product List | Glossary On
Versions: 1 2 3 4 5 6 7 8 9 10 11 12 13 14 15 16 17 18 19 20 21 22 23 24 25 26 27 28 29 30 31
000
FTUS43 KDTX 220800 AAA
TAFPTK
TAF AMD
KPTK 220802Z 2208/2306 32011KT P6SM OVC035
     FM221000 32008KT P6SM BKN040
     FM221700 30008KT P6SM SKC
     FM230000 26004KT P6SM SKC=

USA.gov is the U.S. government's official web portal to all federal, state and local government web resources and services.